Etusivu
METAR-TAF:

METAR-TAF

Lentoasemat :

Odessa-Schlemeyer Field

Odessa, Texas, Yhdysvallat

Leveyspiiri: 31-55-17N, Pituuspiiri: 102-23-30W, korkeus merenpinnasta: 914 m

Tämänhetkinen sää

Tämä raportti tehtiin 25 minuuttia sitten, kello 10.53 UTC
Tuuli 8 kn kaakosta
Lämpötila 23°C
Kosteus 69%
Ilmanpaine 1015 hPa
Näkyvyys: 16.1 km
selkeää

METAR: KODO 081053Z AUTO 14008KT 10SM CLR 23/17 A2997 RMK AO2 SLP093 T02280172

Aika: 06:18 (11:18 UTC)


TAF: puuttuu

Säähavainnot ja -ennusteet yli 4000 lentoasemalta (METAR- ja TAF-raportit).

Käytössä olevat sääasemat on merkitty karttaan keltaisilla ja punaisilla pisteillä.

Aseta hiiri pisteen päälle nähdäksesi sääaseman nimen.

Klikkaa sitten nähdäksesi säähavainnot ja -ennusteet.

Kartan vaihtaminen: klikkaa mustalla rastilla varustettuja vihreitä pisteitä, niin voit zoomata sisään; viivalla varustettua vihreää pistettä, niin voit zoomata ulos tai vihreitä nuolia, niin pääset viereisille kartoille.


METAR-TAF: